createdAt,value
2023-01-09T00:00:52.378Z,50.57
2023-01-09T00:03:19.636Z,50.75
2023-01-09T00:05:46.867Z,50.54
2023-01-09T00:08:14.141Z,50.22
2023-01-09T00:10:41.360Z,50.29
2023-01-09T00:13:13.667Z,50.24
2023-01-09T00:15:41.254Z,50.17
2023-01-09T00:18:08.446Z,50.06
2023-01-09T00:20:36.539Z,50.18
2023-01-09T00:23:04.051Z,49.95
2023-01-09T00:25:31.307Z,49.86
2023-01-09T00:27:58.512Z,49.71
2023-01-09T00:30:26.201Z,49.48
2023-01-09T00:32:55.033Z,49.57
2023-01-09T00:35:23.350Z,49.42
2023-01-09T00:37:50.638Z,49.32
2023-01-09T00:40:18.459Z,49.29
2023-01-09T00:42:53.179Z,49.26
2023-01-09T00:45:28.793Z,49.52
2023-01-09T00:47:59.219Z,49.36
2023-01-09T00:50:29.596Z,49.50
2023-01-09T00:52:57.272Z,49.50
2023-01-09T00:55:24.495Z,49.33
2023-01-09T00:57:51.718Z,49.21
2023-01-09T01:00:19.340Z,49.04
2023-01-09T01:02:46.542Z,49.05
2023-01-09T01:05:32.439Z,49.39
2023-01-09T01:07:59.619Z,49.40
2023-01-09T01:10:27.304Z,49.33
2023-01-09T01:12:54.558Z,49.17
2023-01-09T01:15:21.809Z,49.17
2023-01-09T01:17:49.114Z,49.33
2023-01-09T01:20:18.375Z,49.27
2023-01-09T01:22:47.397Z,49.46
2023-01-09T01:25:17.099Z,49.12
2023-01-09T01:27:44.744Z,49.16
2023-01-09T01:30:13.647Z,49.27
2023-01-09T01:32:40.948Z,49.13
2023-01-09T01:35:08.948Z,49.03
2023-01-09T01:37:36.433Z,49.20
2023-01-09T01:40:04.850Z,49.22
2023-01-09T01:42:32.089Z,49.36
2023-01-09T01:45:10.141Z,49.28
2023-01-09T01:47:49.990Z,49.40
2023-01-09T01:50:17.219Z,49.63
2023-01-09T01:52:46.148Z,49.71
2023-01-09T01:55:13.328Z,49.90
2023-01-09T01:57:41.662Z,49.94
2023-01-09T02:00:09.758Z,49.96
2023-01-09T02:02:36.984Z,50.16
2023-01-09T02:05:04.496Z,50.33
2023-01-09T02:07:31.772Z,50.72
2023-01-09T02:09:59.038Z,50.86
2023-01-09T02:12:27.205Z,51.30
2023-01-09T02:15:05.546Z,51.25
2023-01-09T02:18:10.831Z,51.23
2023-01-09T02:20:39.149Z,51.13
2023-01-09T02:23:21.575Z,51.44
2023-01-09T02:26:29.417Z,51.58
2023-01-09T02:29:19.745Z,52.08
2023-01-09T02:32:00.502Z,52.21
2023-01-09T02:34:46.885Z,52.28
2023-01-09T02:37:46.494Z,52.52
2023-01-09T02:40:22.811Z,52.34
2023-01-09T02:42:49.944Z,52.32
2023-01-09T02:45:17.114Z,52.50
2023-01-09T02:47:45.773Z,52.84
2023-01-09T02:50:20.568Z,52.79
2023-01-09T02:53:00.185Z,52.96
2023-01-09T02:55:49.219Z,52.73
2023-01-09T02:58:35.493Z,52.79
2023-01-09T03:01:27.895Z,52.98
2023-01-09T03:04:04.536Z,52.83
2023-01-09T03:06:44.228Z,52.92
2023-01-09T03:09:17.969Z,52.68
2023-01-09T03:11:48.404Z,52.68
2023-01-09T03:14:17.752Z,53.51
2023-01-09T03:16:47.257Z,53.58
2023-01-09T03:19:16.630Z,53.72
2023-01-09T03:21:44.247Z,54.50
2023-01-09T03:24:11.360Z,54.28
2023-01-09T03:26:38.539Z,54.25
2023-01-09T03:29:05.815Z,54.59
2023-01-09T03:31:33.159Z,54.49
2023-01-09T03:34:00.362Z,54.59
2023-01-09T03:36:27.607Z,54.36
2023-01-09T03:38:54.816Z,54.33
2023-01-09T03:41:22.103Z,54.35
2023-01-09T03:43:49.314Z,54.03
2023-01-09T03:46:17.024Z,53.87
2023-01-09T03:48:44.243Z,54.35
2023-01-09T03:51:11.395Z,54.36
2023-01-09T03:53:38.960Z,54.26
2023-01-09T03:56:06.565Z,54.39
2023-01-09T03:58:33.797Z,54.41
2023-01-09T04:01:03.354Z,54.37
2023-01-09T04:03:30.773Z,54.62
2023-01-09T04:05:58.012Z,54.55
2023-01-09T04:08:25.911Z,54.48
2023-01-09T04:10:53.201Z,54.48
2023-01-09T04:13:20.484Z,54.30
2023-01-09T04:15:47.741Z,54.59
2023-01-09T04:18:15.126Z,54.38
2023-01-09T04:20:42.407Z,54.22
2023-01-09T04:23:09.607Z,54.38
2023-01-09T04:25:36.903Z,54.58
2023-01-09T04:28:04.206Z,54.55
2023-01-09T04:30:31.831Z,54.47
2023-01-09T04:32:58.989Z,54.63
2023-01-09T04:35:26.149Z,54.36
2023-01-09T04:37:53.371Z,54.53
2023-01-09T04:40:20.640Z,54.61
2023-01-09T04:42:48.064Z,54.71
2023-01-09T04:45:17.417Z,54.82
2023-01-09T04:47:45.129Z,54.63
2023-01-09T04:50:12.862Z,54.64
2023-01-09T04:52:40.266Z,54.72
2023-01-09T04:55:08.306Z,54.96
2023-01-09T04:57:36.201Z,55.23
2023-01-09T05:00:04.868Z,55.13
2023-01-09T05:02:32.249Z,54.95
2023-01-09T05:04:59.498Z,55.05
2023-01-09T05:07:26.901Z,54.83
2023-01-09T05:09:54.089Z,54.92
2023-01-09T05:12:21.252Z,54.62
2023-01-09T05:14:48.516Z,54.79
2023-01-09T05:17:15.697Z,54.86
2023-01-09T05:19:43.049Z,54.72
2023-01-09T05:22:10.357Z,54.53
2023-01-09T05:24:37.716Z,54.84
2023-01-09T05:27:04.983Z,54.75
2023-01-09T05:29:32.214Z,54.83
2023-01-09T05:31:59.465Z,54.66
2023-01-09T05:34:26.747Z,54.55
2023-01-09T05:36:53.898Z,54.71
2023-01-09T05:39:21.191Z,54.71
2023-01-09T05:41:48.560Z,54.67
2023-01-09T05:44:15.837Z,55.33
2023-01-09T05:46:43.087Z,55.88
2023-01-09T05:49:10.271Z,55.45
2023-01-09T05:51:37.965Z,55.09
2023-01-09T05:54:07.638Z,55.09
2023-01-09T05:56:35.213Z,54.82
2023-01-09T05:59:02.475Z,54.76
2023-01-09T06:01:29.748Z,54.99
2023-01-09T06:03:56.980Z,55.36
2023-01-09T06:06:24.522Z,54.88
2023-01-09T06:08:51.728Z,55.28
2023-01-09T06:11:18.900Z,54.94
2023-01-09T06:13:46.399Z,54.72
2023-01-09T06:16:14.224Z,55.10
2023-01-09T06:18:41.792Z,54.63
2023-01-09T06:21:08.987Z,54.22
2023-01-09T06:23:36.163Z,54.08
2023-01-09T06:26:03.349Z,53.80
2023-01-09T06:28:30.564Z,53.41
2023-01-09T06:30:57.951Z,53.23
2023-01-09T06:33:25.264Z,52.77
2023-01-09T06:35:52.465Z,52.60
2023-01-09T06:38:19.869Z,52.35
2023-01-09T06:40:47.089Z,52.55
2023-01-09T06:43:14.362Z,52.03
2023-01-09T06:45:45.592Z,50.93
2023-01-09T06:48:12.998Z,50.49
2023-01-09T06:50:40.168Z,48.92
2023-01-09T06:53:07.328Z,48.12
2023-01-09T06:55:34.529Z,46.86
2023-01-09T06:58:01.588Z,46.89
2023-01-09T07:00:29.817Z,44.74
2023-01-09T07:02:57.034Z,45.18
2023-01-09T07:05:24.472Z,43.89
2023-01-09T07:07:51.778Z,41.97
2023-01-09T07:10:19.165Z,42.06
2023-01-09T07:12:46.967Z,41.47
2023-01-09T07:15:14.169Z,40.63
2023-01-09T07:17:42.451Z,39.83
2023-01-09T07:20:19.567Z,39.15
2023-01-09T07:22:47.298Z,39.15
2023-01-09T07:25:14.544Z,37.38
2023-01-09T07:27:42.591Z,36.61
2023-01-09T07:30:10.826Z,36.53
2023-01-09T07:32:45.288Z,37.22
2023-01-09T07:35:12.855Z,37.48
2023-01-09T07:37:40.078Z,37.24
2023-01-09T07:40:08.618Z,35.92
2023-01-09T07:42:36.026Z,35.59
2023-01-09T07:45:03.941Z,34.94
2023-01-09T07:47:31.144Z,34.74
2023-01-09T07:49:58.367Z,34.84
2023-01-09T07:52:25.644Z,35.19
2023-01-09T07:54:52.805Z,35.28
2023-01-09T07:57:20.123Z,34.94
2023-01-09T07:59:47.284Z,35.45
2023-01-09T08:02:14.489Z,34.33
2023-01-09T08:04:41.684Z,34.47
2023-01-09T08:07:08.884Z,34.69
2023-01-09T08:09:36.363Z,34.62
2023-01-09T08:12:04.498Z,34.25
2023-01-09T08:14:31.820Z,34.59
2023-01-09T08:16:59.107Z,34.70
2023-01-09T08:19:26.344Z,33.74
2023-01-09T08:21:53.838Z,32.53
2023-01-09T08:24:21.023Z,32.80
2023-01-09T08:26:48.476Z,32.68
2023-01-09T08:29:15.679Z,32.71
2023-01-09T08:31:42.925Z,33.19
2023-01-09T08:34:10.744Z,32.01
2023-01-09T08:36:37.959Z,31.92
2023-01-09T08:39:05.197Z,31.77
2023-01-09T08:41:51.171Z,31.90
2023-01-09T08:44:37.411Z,30.99
2023-01-09T08:47:07.567Z,30.41
2023-01-09T08:49:35.923Z,30.62
2023-01-09T08:52:04.110Z,31.27
2023-01-09T08:54:31.509Z,31.13
2023-01-09T08:56:58.820Z,32.14
2023-01-09T08:59:25.984Z,31.44
2023-01-09T09:01:53.255Z,30.81
2023-01-09T09:04:20.579Z,30.48
2023-01-09T09:06:48.189Z,30.32
2023-01-09T09:09:15.408Z,30.10
2023-01-09T09:11:42.529Z,31.32
2023-01-09T09:14:28.588Z,30.91
2023-01-09T09:16:56.004Z,30.30
2023-01-09T09:19:23.247Z,30.26
2023-01-09T09:21:50.542Z,30.04
2023-01-09T09:24:17.829Z,29.93
2023-01-09T09:26:45.094Z,29.88
2023-01-09T09:29:12.528Z,29.35
2023-01-09T09:31:39.813Z,29.71
2023-01-09T09:34:07.378Z,29.08
2023-01-09T09:36:34.818Z,28.68
2023-01-09T09:39:02.952Z,30.07
2023-01-09T09:41:52.882Z,30.03
2023-01-09T09:44:52.642Z,29.97
2023-01-09T09:47:32.324Z,30.41
2023-01-09T09:50:08.781Z,30.30
2023-01-09T09:53:07.631Z,30.53
2023-01-09T09:55:35.704Z,30.91
2023-01-09T09:58:08.013Z,31.82
2023-01-09T10:00:35.586Z,31.63
2023-01-09T10:03:34.149Z,31.41
2023-01-09T10:06:04.841Z,31.67
2023-01-09T10:08:54.060Z,31.61
2023-01-09T10:11:27.262Z,31.68
2023-01-09T10:14:16.081Z,32.12
2023-01-09T10:17:11.611Z,32.53
2023-01-09T10:19:54.247Z,32.85
2023-01-09T10:22:43.462Z,32.33
2023-01-09T10:25:23.066Z,31.85
2023-01-09T10:28:23.031Z,32.69
2023-01-09T10:31:03.023Z,32.87
2023-01-09T10:33:41.916Z,33.08
2023-01-09T10:36:44.842Z,32.61
2023-01-09T10:39:28.266Z,32.59
2023-01-09T10:42:08.107Z,32.77
2023-01-09T10:44:40.085Z,32.81
2023-01-09T10:47:35.550Z,32.69
2023-01-09T10:50:14.919Z,32.48
2023-01-09T10:52:42.246Z,32.92
2023-01-09T10:55:19.736Z,33.30
2023-01-09T10:57:53.650Z,33.09
2023-01-09T11:00:23.698Z,33.91
2023-01-09T11:02:54.965Z,34.53
2023-01-09T11:05:24.741Z,35.76
2023-01-09T11:08:27.720Z,36.05
2023-01-09T11:10:56.589Z,36.18
2023-01-09T11:13:34.765Z,37.26
2023-01-09T11:16:11.649Z,37.69
2023-01-09T11:18:40.564Z,36.93
2023-01-09T11:21:23.209Z,36.67
2023-01-09T11:23:50.619Z,37.28
2023-01-09T11:26:26.827Z,36.90
2023-01-09T11:29:07.683Z,37.62
2023-01-09T11:31:34.985Z,37.45
2023-01-09T11:34:02.240Z,37.25
2023-01-09T11:36:32.174Z,36.96
2023-01-09T11:39:00.401Z,36.79
2023-01-09T11:41:32.735Z,36.70
2023-01-09T11:43:59.995Z,36.72
2023-01-09T11:46:35.500Z,36.80
2023-01-09T11:49:23.749Z,36.59
2023-01-09T11:52:16.566Z,36.83
2023-01-09T11:54:52.143Z,37.20
2023-01-09T11:57:21.083Z,37.02
2023-01-09T11:59:48.329Z,37.37
2023-01-09T12:02:40.595Z,37.31
2023-01-09T12:05:23.139Z,37.78
2023-01-09T12:07:50.302Z,38.22
2023-01-09T12:10:42.649Z,38.17
2023-01-09T12:13:16.111Z,37.84
2023-01-09T12:15:58.373Z,37.68
2023-01-09T12:18:45.631Z,37.50
2023-01-09T12:21:34.925Z,37.02
2023-01-09T12:24:38.111Z,37.42
2023-01-09T12:27:43.776Z,37.48
2023-01-09T12:30:45.409Z,37.18
2023-01-09T12:33:28.436Z,37.05
2023-01-09T12:36:14.128Z,36.83
2023-01-09T12:38:42.606Z,36.92
2023-01-09T12:41:42.968Z,37.01
2023-01-09T12:44:35.976Z,37.21
2023-01-09T12:47:34.989Z,36.94
2023-01-09T12:50:06.341Z,37.16
2023-01-09T12:52:45.248Z,37.17
2023-01-09T12:55:14.651Z,37.46
2023-01-09T12:57:59.225Z,37.43
2023-01-09T13:00:32.114Z,37.53
2023-01-09T13:03:12.060Z,37.96
2023-01-09T13:05:50.570Z,38.27
2023-01-09T13:08:27.037Z,38.55
2023-01-09T13:10:59.895Z,38.54
2023-01-09T13:13:32.380Z,38.82
2023-01-09T13:16:06.074Z,39.04
2023-01-09T13:18:42.748Z,39.49
2023-01-09T13:21:09.996Z,39.72
2023-01-09T13:24:08.105Z,40.44
2023-01-09T13:26:35.337Z,41.06
2023-01-09T13:29:26.855Z,41.18
2023-01-09T13:32:31.748Z,41.33
2023-01-09T13:35:01.586Z,41.64
2023-01-09T13:37:37.929Z,41.73
2023-01-09T13:40:22.338Z,41.95
2023-01-09T13:42:58.379Z,42.08
2023-01-09T13:45:27.622Z,42.24
2023-01-09T13:48:12.208Z,42.15
2023-01-09T13:50:39.549Z,41.93
2023-01-09T13:53:20.369Z,41.71
2023-01-09T13:55:58.035Z,41.48
2023-01-09T13:58:39.907Z,41.36
2023-01-09T14:01:24.593Z,41.37
2023-01-09T14:04:21.626Z,41.30
2023-01-09T14:07:14.749Z,41.20
2023-01-09T14:09:56.490Z,41.26
2023-01-09T14:12:23.712Z,41.39
2023-01-09T14:14:52.294Z,41.29
2023-01-09T14:17:34.469Z,41.27
2023-01-09T14:20:05.081Z,41.14
2023-01-09T14:22:45.604Z,41.16
2023-01-09T14:25:27.652Z,41.16
2023-01-09T14:27:54.838Z,41.28
2023-01-09T14:30:28.731Z,41.23
2023-01-09T14:33:05.279Z,41.19
2023-01-09T14:35:55.697Z,41.36
2023-01-09T14:38:27.958Z,41.55
2023-01-09T14:41:46.246Z,41.48
2023-01-09T14:44:41.449Z,41.46
2023-01-09T14:47:23.104Z,41.55
2023-01-09T14:50:15.748Z,41.80
2023-01-09T14:53:09.947Z,42.11
2023-01-09T14:55:43.355Z,42.48
2023-01-09T14:58:23.389Z,42.64
2023-01-09T15:01:19.043Z,42.72
2023-01-09T15:03:50.516Z,43.02
2023-01-09T15:06:26.075Z,42.97
2023-01-09T15:09:05.213Z,43.08
2023-01-09T15:11:32.657Z,43.19
2023-01-09T15:14:00.419Z,42.91
2023-01-09T15:16:28.283Z,42.99
2023-01-09T15:18:57.666Z,43.10
2023-01-09T15:21:26.244Z,43.16
2023-01-09T15:23:53.574Z,43.19
2023-01-09T15:26:29.882Z,42.99
2023-01-09T15:29:02.803Z,42.85
2023-01-09T15:31:30.050Z,42.63
2023-01-09T15:33:57.417Z,42.53
2023-01-09T15:36:26.041Z,42.34
2023-01-09T15:38:53.443Z,41.95
2023-01-09T15:41:47.249Z,41.85
2023-01-09T15:44:27.896Z,41.60
2023-01-09T15:46:58.414Z,41.40
2023-01-09T15:49:25.680Z,41.23
2023-01-09T15:51:52.850Z,41.07
2023-01-09T15:54:25.905Z,40.93
2023-01-09T15:56:53.560Z,40.90
2023-01-09T15:59:28.953Z,40.92
2023-01-09T16:02:23.204Z,40.50
2023-01-09T16:04:50.731Z,40.12
2023-01-09T16:07:19.457Z,39.94
2023-01-09T16:09:48.048Z,39.71
2023-01-09T16:12:23.675Z,39.73
2023-01-09T16:15:15.301Z,39.76
2023-01-09T16:18:21.556Z,39.66
2023-01-09T16:20:49.601Z,39.76
2023-01-09T16:23:25.300Z,39.51
2023-01-09T16:26:22.172Z,39.60
2023-01-09T16:28:50.216Z,39.36
2023-01-09T16:31:20.620Z,39.25
2023-01-09T16:33:53.699Z,39.13
2023-01-09T16:36:23.909Z,39.13
2023-01-09T16:38:51.646Z,39.07
2023-01-09T16:41:40.330Z,39.16
2023-01-09T16:44:12.156Z,39.19
2023-01-09T16:46:44.028Z,39.25
2023-01-09T16:49:19.729Z,39.61
2023-01-09T16:51:47.555Z,40.08
2023-01-09T16:54:15.008Z,40.25
2023-01-09T16:56:44.561Z,40.33
2023-01-09T16:59:16.405Z,40.37
2023-01-09T17:01:48.362Z,40.43
2023-01-09T17:04:17.428Z,40.69
2023-01-09T17:06:44.800Z,40.76
2023-01-09T17:09:14.890Z,40.70
2023-01-09T17:11:42.363Z,40.81
2023-01-09T17:14:13.178Z,40.83
2023-01-09T17:16:43.482Z,40.66
2023-01-09T17:19:16.150Z,40.78
2023-01-09T17:21:46.483Z,40.62
2023-01-09T17:24:35.234Z,40.48
2023-01-09T17:27:21.415Z,40.35
2023-01-09T17:29:49.510Z,40.41
2023-01-09T17:32:17.706Z,40.58
2023-01-09T17:34:45.050Z,40.61
2023-01-09T17:37:16.771Z,40.60
2023-01-09T17:39:44.703Z,40.47
2023-01-09T17:42:12.083Z,40.24
2023-01-09T17:44:39.447Z,40.06
2023-01-09T17:47:07.630Z,40.20
2023-01-09T17:49:38.746Z,40.45
2023-01-09T17:52:07.207Z,40.45
2023-01-09T17:54:34.326Z,40.47
2023-01-09T17:57:02.523Z,40.49
2023-01-09T17:59:30.564Z,40.32
2023-01-09T18:01:58.082Z,40.38
2023-01-09T18:04:26.408Z,40.57
2023-01-09T18:06:54.833Z,40.53
2023-01-09T18:09:22.098Z,40.79
2023-01-09T18:11:49.893Z,40.90
2023-01-09T18:14:17.983Z,40.97
2023-01-09T18:16:45.527Z,41.06
2023-01-09T18:19:12.905Z,41.11
2023-01-09T18:21:40.213Z,41.12
2023-01-09T18:24:08.810Z,41.09
2023-01-09T18:26:36.230Z,41.10
2023-01-09T18:29:05.335Z,41.15
2023-01-09T18:31:34.242Z,41.04
2023-01-09T18:34:05.611Z,41.19
2023-01-09T18:36:33.955Z,41.26
2023-01-09T18:39:02.596Z,41.41
2023-01-09T18:41:30.421Z,41.03
2023-01-09T18:43:59.253Z,40.97
2023-01-09T18:46:31.013Z,40.86
2023-01-09T18:49:04.769Z,40.74
2023-01-09T18:51:32.670Z,40.63
2023-01-09T18:53:59.989Z,40.78
2023-01-09T18:56:27.250Z,40.79
2023-01-09T18:58:57.308Z,40.58
2023-01-09T19:01:29.793Z,40.79
2023-01-09T19:03:58.414Z,40.77
2023-01-09T19:06:26.733Z,40.68
2023-01-09T19:08:55.193Z,40.84
2023-01-09T19:11:24.215Z,40.88
2023-01-09T19:13:51.605Z,40.98
2023-01-09T19:16:19.128Z,41.12
2023-01-09T19:18:46.580Z,41.22
2023-01-09T19:21:21.082Z,41.19
2023-01-09T19:23:51.497Z,41.30
2023-01-09T19:26:21.575Z,41.40
2023-01-09T19:28:50.316Z,41.50
2023-01-09T19:31:18.053Z,41.52
2023-01-09T19:33:45.432Z,41.50
2023-01-09T19:36:12.818Z,41.58
2023-01-09T19:38:40.395Z,41.51
2023-01-09T19:41:14.567Z,41.72
2023-01-09T19:43:41.985Z,41.86
2023-01-09T19:46:19.041Z,41.90
2023-01-09T19:48:46.825Z,41.73
2023-01-09T19:51:15.793Z,41.66
2023-01-09T19:53:46.019Z,41.97
2023-01-09T19:56:15.598Z,41.70
2023-01-09T19:58:44.297Z,41.74
2023-01-09T20:01:13.645Z,41.64
2023-01-09T20:03:41.782Z,41.60
2023-01-09T20:06:14.151Z,41.51
2023-01-09T20:08:42.182Z,41.89
2023-01-09T20:11:09.479Z,41.84
2023-01-09T20:13:37.147Z,41.91
2023-01-09T20:16:04.758Z,41.97
2023-01-09T20:18:32.756Z,41.90
2023-01-09T20:21:00.290Z,41.71
2023-01-09T20:23:27.928Z,41.68
2023-01-09T20:25:56.107Z,41.66
2023-01-09T20:28:24.017Z,41.49
2023-01-09T20:30:51.892Z,41.66
2023-01-09T20:33:21.266Z,41.49
2023-01-09T20:35:48.533Z,41.65
2023-01-09T20:38:16.128Z,41.66
2023-01-09T20:40:44.281Z,41.59
2023-01-09T20:43:12.723Z,41.66
2023-01-09T20:45:40.483Z,41.53
2023-01-09T20:48:08.401Z,41.33
2023-01-09T20:50:35.698Z,41.38
2023-01-09T20:53:05.980Z,41.49
2023-01-09T20:55:35.062Z,41.27
2023-01-09T20:58:02.225Z,41.30
2023-01-09T21:00:32.310Z,41.33
2023-01-09T21:02:59.907Z,41.09
2023-01-09T21:05:27.358Z,41.04
2023-01-09T21:07:54.613Z,41.00
2023-01-09T21:10:21.867Z,40.82
2023-01-09T21:12:49.618Z,40.74
2023-01-09T21:15:18.120Z,40.61
2023-01-09T21:17:45.519Z,40.58
2023-01-09T21:20:14.118Z,40.56
2023-01-09T21:22:43.701Z,40.72
2023-01-09T21:25:11.606Z,40.52
2023-01-09T21:27:40.972Z,40.53
2023-01-09T21:30:09.203Z,40.57
2023-01-09T21:32:36.753Z,40.45
2023-01-09T21:35:06.058Z,40.52
2023-01-09T21:37:34.758Z,40.37
2023-01-09T21:40:02.218Z,40.48
2023-01-09T21:42:48.199Z,40.48
2023-01-09T21:45:34.708Z,40.53
2023-01-09T21:48:05.814Z,40.51
2023-01-09T21:50:33.784Z,40.57
2023-01-09T21:53:01.547Z,40.58
2023-01-09T21:55:29.044Z,40.65
2023-01-09T21:57:56.506Z,40.64
2023-01-09T22:00:24.756Z,40.36
2023-01-09T22:02:52.087Z,40.41
2023-01-09T22:05:19.258Z,40.32
2023-01-09T22:07:46.518Z,40.42
2023-01-09T22:10:13.696Z,40.34
2023-01-09T22:13:00.837Z,40.37
2023-01-09T22:15:28.364Z,40.30
2023-01-09T22:17:55.627Z,40.43
2023-01-09T22:20:22.802Z,40.50
2023-01-09T22:22:50.067Z,40.24
2023-01-09T22:25:17.414Z,40.31
2023-01-09T22:27:44.881Z,40.40
2023-01-09T22:30:12.529Z,40.34
2023-01-09T22:32:39.765Z,40.51
2023-01-09T22:35:07.688Z,40.47
2023-01-09T22:37:34.885Z,40.45
2023-01-09T22:40:02.183Z,40.47
2023-01-09T22:42:29.621Z,40.57
2023-01-09T22:44:56.823Z,40.73
2023-01-09T22:47:24.107Z,40.71
2023-01-09T22:49:53.524Z,40.66
2023-01-09T22:52:21.567Z,40.71
2023-01-09T22:54:48.727Z,40.88
2023-01-09T22:57:15.919Z,40.98
2023-01-09T22:59:43.060Z,40.90
2023-01-09T23:02:10.406Z,40.87
2023-01-09T23:04:37.704Z,40.70
2023-01-09T23:07:04.917Z,40.65
2023-01-09T23:09:32.099Z,40.90
2023-01-09T23:12:02.174Z,41.12
2023-01-09T23:14:30.552Z,41.16
2023-01-09T23:16:58.172Z,41.04
2023-01-09T23:19:25.359Z,40.88
2023-01-09T23:21:52.640Z,40.78
2023-01-09T23:24:19.991Z,40.68
2023-01-09T23:26:47.925Z,40.56
2023-01-09T23:29:15.526Z,40.54
2023-01-09T23:31:43.015Z,40.50
2023-01-09T23:34:13.129Z,40.41
2023-01-09T23:36:40.558Z,40.37
2023-01-09T23:39:10.723Z,40.14
2023-01-09T23:41:57.050Z,40.12
2023-01-09T23:44:24.260Z,39.96
2023-01-09T23:46:51.500Z,39.89
2023-01-09T23:49:19.260Z,40.08
2023-01-09T23:51:46.766Z,39.91
2023-01-09T23:54:14.361Z,40.05
2023-01-09T23:56:41.550Z,40.07
2023-01-09T23:59:11.608Z,39.95
